Airport View

Enter AWOS ICAO identifier for current METAR.

ex. KFNL

KCBM 100156Z AUTO 15006KT 10SM CLR 26/24 A2986 RMK AO2 SLP112 T02610243 $

10 Jul 2020 02:13

Other Area AWOS: KGTR - KM40 - KSTF - KTUP

TAF AMD KCBM 100003Z 1000/1023 VRB06KT 9999 BKN030 QNH2986INS BECMG 1017/1018 30012KT 9000 -SHRA SCT040 QNH2988INS TX33/1017Z TN24/1010Z LAST NO AMDS AFT 1000 NEXT 1009